createdAt,value
2018-12-26T00:00:31.232Z,2.58
2018-12-26T00:01:08.260Z,3.02
2018-12-26T00:01:45.598Z,2.92
2018-12-26T00:02:23.058Z,2.83
2018-12-26T00:03:00.350Z,2.33
2018-12-26T00:03:37.339Z,3.08
2018-12-26T00:04:14.830Z,2.67
2018-12-26T00:04:52.200Z,2.40
2018-12-26T00:05:30.123Z,2.77
2018-12-26T00:06:07.400Z,2.00
2018-12-26T00:06:45.088Z,2.55
2018-12-26T00:07:22.381Z,2.58
2018-12-26T00:07:59.138Z,3.12
2018-12-26T00:08:36.632Z,2.42
2018-12-26T00:09:13.985Z,2.95
2018-12-26T00:09:50.976Z,2.95
2018-12-26T00:10:28.249Z,2.45
2018-12-26T00:11:06.035Z,2.67
2018-12-26T00:11:43.678Z,2.37
2018-12-26T00:12:21.244Z,2.50
2018-12-26T00:12:58.754Z,1.95
2018-12-26T00:13:36.362Z,2.40
2018-12-26T00:14:14.232Z,2.27
2018-12-26T00:14:51.833Z,2.30
2018-12-26T00:15:28.814Z,1.95
2018-12-26T00:16:06.341Z,2.52
2018-12-26T00:16:44.204Z,2.55
2018-12-26T00:17:21.404Z,2.02
2018-12-26T00:17:59.260Z,2.55
2018-12-26T00:18:36.216Z,2.10
2018-12-26T00:19:13.982Z,2.37
2018-12-26T00:19:51.820Z,2.80
2018-12-26T00:20:29.328Z,2.45
2018-12-26T00:21:06.845Z,2.00
2018-12-26T00:21:44.196Z,3.08
2018-12-26T00:22:22.194Z,2.50
2018-12-26T00:22:59.777Z,2.65
2018-12-26T00:23:37.030Z,2.20
2018-12-26T00:24:14.616Z,2.35
2018-12-26T00:24:52.159Z,3.00
2018-12-26T00:25:30.056Z,2.22
2018-12-26T00:26:07.660Z,2.35
2018-12-26T00:26:44.467Z,2.20
2018-12-26T00:27:21.735Z,2.67
2018-12-26T00:27:59.399Z,3.25
2018-12-26T00:28:37.054Z,2.83
2018-12-26T00:29:14.281Z,2.35
2018-12-26T00:29:52.205Z,2.70
2018-12-26T00:30:29.739Z,2.35
2018-12-26T00:31:07.408Z,2.72
2018-12-26T00:31:44.959Z,3.10
2018-12-26T00:32:22.491Z,2.77
2018-12-26T00:33:00.271Z,2.65
2018-12-26T00:33:37.316Z,2.60
2018-12-26T00:34:14.858Z,2.67
2018-12-26T00:34:51.877Z,2.95
2018-12-26T00:35:29.218Z,2.60
2018-12-26T00:36:06.750Z,2.87
2018-12-26T00:36:43.768Z,2.30
2018-12-26T00:37:21.089Z,2.77
2018-12-26T00:37:58.560Z,2.25
2018-12-26T00:38:36.064Z,2.60
2018-12-26T00:39:13.913Z,2.30
2018-12-26T00:39:52.880Z,3.55
2018-12-26T00:40:29.860Z,2.70
2018-12-26T00:41:07.140Z,2.65
2018-12-26T00:41:44.520Z,3.52
2018-12-26T00:42:21.758Z,2.40
2018-12-26T00:42:58.852Z,2.62
2018-12-26T00:43:36.107Z,2.58
2018-12-26T00:44:14.044Z,2.67
2018-12-26T00:44:51.873Z,3.30
2018-12-26T00:45:29.116Z,2.62
2018-12-26T00:46:06.638Z,2.45
2018-12-26T00:46:43.923Z,2.60
2018-12-26T00:47:21.104Z,2.58
2018-12-26T00:47:58.652Z,2.10
2018-12-26T00:48:35.954Z,2.92
2018-12-26T00:49:13.561Z,2.40
2018-12-26T00:49:50.862Z,2.35
2018-12-26T00:50:28.214Z,2.33
2018-12-26T00:51:05.492Z,3.10
2018-12-26T00:51:42.500Z,2.40
2018-12-26T00:52:19.774Z,2.80
2018-12-26T00:52:57.050Z,2.80
2018-12-26T00:53:33.684Z,2.55
2018-12-26T00:54:10.652Z,2.45
2018-12-26T00:54:48.185Z,2.65
2018-12-26T00:55:26.178Z,3.15
2018-12-26T00:56:10.434Z,2.20
2018-12-26T00:56:42.839Z,2.33
2018-12-26T00:57:20.171Z,2.75
2018-12-26T00:57:58.004Z,2.50
2018-12-26T00:58:35.589Z,2.60
2018-12-26T00:59:13.118Z,2.45
2018-12-26T00:59:50.675Z,2.70
2018-12-26T01:00:27.384Z,2.60
2018-12-26T01:01:04.577Z,2.80
2018-12-26T01:01:42.109Z,2.77
2018-12-26T01:02:20.000Z,2.75
2018-12-26T01:02:57.250Z,2.65
2018-12-26T01:03:34.563Z,2.15
2018-12-26T01:04:12.074Z,2.75
2018-12-26T01:04:49.604Z,2.30
2018-12-26T01:05:26.690Z,3.55
2018-12-26T01:06:04.516Z,2.45
2018-12-26T01:06:41.224Z,2.60
2018-12-26T01:07:18.745Z,2.87
2018-12-26T01:07:55.922Z,2.30
2018-12-26T01:08:33.404Z,3.12
2018-12-26T01:09:11.546Z,2.10
2018-12-26T01:09:49.104Z,2.95
2018-12-26T01:10:26.608Z,2.70
2018-12-26T01:11:03.589Z,2.83
2018-12-26T01:11:41.206Z,2.30
2018-12-26T01:12:18.782Z,2.15
2018-12-26T01:12:56.418Z,2.80
2018-12-26T01:13:33.975Z,2.87
2018-12-26T01:14:11.273Z,2.55
2018-12-26T01:14:48.566Z,2.33
2018-12-26T01:15:26.379Z,2.05
2018-12-26T01:16:03.582Z,2.12
2018-12-26T01:16:41.336Z,2.30
2018-12-26T01:17:18.540Z,2.67
2018-12-26T01:17:58.191Z,2.10
2018-12-26T01:18:34.972Z,2.95
2018-12-26T01:19:12.208Z,2.25
2018-12-26T01:19:49.519Z,2.98
2018-12-26T01:20:27.059Z,2.95
2018-12-26T01:21:04.884Z,2.45
2018-12-26T01:21:42.078Z,3.00
2018-12-26T01:22:19.488Z,2.60
2018-12-26T01:22:57.105Z,2.45
2018-12-26T01:23:34.661Z,2.85
2018-12-26T01:24:12.028Z,2.17
2018-12-26T01:24:49.918Z,3.00
2018-12-26T01:25:27.481Z,1.90
2018-12-26T01:26:04.804Z,1.90
2018-12-26T01:26:42.689Z,2.33
2018-12-26T01:27:20.116Z,1.90
2018-12-26T01:27:57.360Z,1.65
2018-12-26T01:28:34.968Z,1.70
2018-12-26T01:29:12.175Z,2.10
2018-12-26T01:29:49.104Z,2.62
2018-12-26T01:30:26.312Z,2.10
2018-12-26T01:31:03.602Z,2.25
2018-12-26T01:31:40.944Z,2.22
2018-12-26T01:32:17.954Z,2.33
2018-12-26T01:32:55.448Z,2.35
2018-12-26T01:33:33.006Z,2.30
2018-12-26T01:34:10.048Z,2.20
2018-12-26T01:34:47.912Z,2.25
2018-12-26T01:35:25.418Z,1.80
2018-12-26T01:36:03.072Z,2.25
2018-12-26T01:36:40.618Z,2.58
2018-12-26T01:37:18.132Z,2.20
2018-12-26T01:37:55.434Z,2.20
2018-12-26T01:38:32.679Z,1.85
2018-12-26T01:39:09.780Z,2.20
2018-12-26T01:39:47.092Z,2.60
2018-12-26T01:40:24.862Z,2.58
2018-12-26T01:41:02.732Z,1.92
2018-12-26T01:41:39.764Z,2.17
2018-12-26T01:42:16.765Z,1.85
2018-12-26T01:42:53.768Z,2.10
2018-12-26T01:43:31.318Z,1.98
2018-12-26T01:44:09.132Z,2.70
2018-12-26T01:44:46.684Z,2.00
2018-12-26T01:45:23.634Z,2.20
2018-12-26T01:46:01.164Z,1.90
2018-12-26T01:46:39.056Z,2.15
2018-12-26T01:47:16.284Z,2.00
2018-12-26T01:47:53.186Z,2.33
2018-12-26T01:48:30.929Z,2.37
2018-12-26T01:49:08.762Z,2.15
2018-12-26T01:49:45.803Z,1.87
2018-12-26T01:50:23.085Z,2.25
2018-12-26T01:51:00.416Z,2.50
2018-12-26T01:51:37.972Z,2.58
2018-12-26T01:52:15.214Z,2.35
2018-12-26T01:52:52.795Z,1.70
2018-12-26T01:53:30.724Z,2.08
2018-12-26T01:54:08.394Z,2.37
2018-12-26T01:54:45.436Z,1.50
2018-12-26T01:55:22.780Z,1.55
2018-12-26T01:56:00.308Z,2.33
2018-12-26T01:56:37.890Z,2.42
2018-12-26T01:57:15.162Z,2.80
2018-12-26T01:57:52.666Z,2.08
2018-12-26T01:58:29.952Z,1.80
2018-12-26T01:59:07.096Z,2.17
2018-12-26T01:59:44.698Z,2.50
2018-12-26T02:00:22.516Z,1.65
2018-12-26T02:00:59.828Z,1.50
2018-12-26T02:01:37.416Z,1.70
2018-12-26T02:02:15.148Z,1.87
2018-12-26T02:02:52.372Z,1.82
2018-12-26T02:03:30.244Z,1.90
2018-12-26T02:04:07.441Z,2.10
2018-12-26T02:04:45.012Z,1.62
2018-12-26T02:05:22.575Z,1.77
2018-12-26T02:06:00.108Z,2.17
2018-12-26T02:06:37.915Z,1.72
2018-12-26T02:07:15.808Z,2.08
2018-12-26T02:07:53.644Z,1.70
2018-12-26T02:08:31.505Z,1.77
2018-12-26T02:09:10.562Z,2.17
2018-12-26T02:09:48.223Z,1.90
2018-12-26T02:10:25.525Z,2.17
2018-12-26T02:11:03.054Z,2.35
2018-12-26T02:11:40.608Z,1.82
2018-12-26T02:12:18.258Z,2.35
2018-12-26T02:12:55.736Z,2.10
2018-12-26T02:13:33.500Z,2.00
2018-12-26T02:14:11.063Z,1.90
2018-12-26T02:14:48.688Z,2.37
2018-12-26T02:15:26.273Z,1.95
2018-12-26T02:16:03.850Z,2.20
2018-12-26T02:16:40.777Z,2.35
2018-12-26T02:17:18.268Z,1.92
2018-12-26T02:17:56.117Z,2.27
2018-12-26T02:18:33.618Z,1.82
2018-12-26T02:19:11.296Z,2.50
2018-12-26T02:19:48.982Z,2.02
2018-12-26T02:20:26.349Z,2.62
2018-12-26T02:21:03.560Z,1.85
2018-12-26T02:21:40.804Z,1.55
2018-12-26T02:22:18.359Z,1.62
2018-12-26T02:22:55.947Z,2.20
2018-12-26T02:23:33.522Z,1.55
2018-12-26T02:24:11.116Z,2.62
2018-12-26T02:24:48.756Z,1.55
2018-12-26T02:25:26.150Z,2.00
2018-12-26T02:26:03.409Z,2.02
2018-12-26T02:26:40.722Z,1.75
2018-12-26T02:27:18.777Z,1.82
2018-12-26T02:27:56.206Z,1.52
2018-12-26T02:28:33.465Z,1.30
2018-12-26T02:29:11.101Z,1.50
2018-12-26T02:29:48.668Z,2.20
2018-12-26T02:30:26.478Z,2.25
2018-12-26T02:31:04.725Z,1.45
2018-12-26T02:31:42.001Z,1.72
2018-12-26T02:32:19.332Z,1.92
2018-12-26T02:32:56.751Z,1.50
2018-12-26T02:33:34.452Z,1.80
2018-12-26T02:34:11.527Z,1.70
2018-12-26T02:34:49.358Z,1.72
2018-12-26T02:35:27.206Z,1.50
2018-12-26T02:36:04.645Z,1.75
2018-12-26T02:36:42.003Z,1.67
2018-12-26T02:37:18.960Z,1.62
2018-12-26T02:37:56.854Z,1.90
2018-12-26T02:38:34.151Z,2.30
2018-12-26T02:39:11.620Z,1.70
2018-12-26T02:39:48.655Z,1.75
2018-12-26T02:40:25.646Z,1.45
2018-12-26T02:41:03.195Z,1.95
2018-12-26T02:41:40.721Z,2.25
2018-12-26T02:42:18.234Z,1.60
2018-12-26T02:42:56.150Z,1.98
2018-12-26T02:43:33.773Z,1.55
2018-12-26T02:44:10.508Z,1.60
2018-12-26T02:44:48.051Z,1.55
2018-12-26T02:45:25.282Z,1.60
2018-12-26T02:46:02.796Z,2.35
2018-12-26T02:46:40.283Z,1.90
2018-12-26T02:47:17.528Z,1.92
2018-12-26T02:47:55.438Z,1.60
2018-12-26T02:48:32.979Z,1.55
2018-12-26T02:49:10.552Z,1.20
2018-12-26T02:49:48.195Z,1.65
2018-12-26T02:50:25.521Z,1.57
2018-12-26T02:51:03.237Z,1.65
2018-12-26T02:51:40.658Z,1.95
2018-12-26T02:52:18.175Z,1.45
2018-12-26T02:52:55.518Z,1.70
2018-12-26T02:53:33.227Z,1.62
2018-12-26T02:54:10.740Z,1.70
2018-12-26T02:54:48.263Z,1.52
2018-12-26T02:55:25.782Z,2.08
2018-12-26T02:56:03.372Z,2.05
2018-12-26T02:56:46.609Z,1.85
2018-12-26T02:57:20.120Z,1.45
2018-12-26T02:57:57.656Z,1.70
2018-12-26T02:58:34.832Z,1.60
2018-12-26T02:59:12.361Z,1.55
2018-12-26T02:59:49.956Z,1.40
2018-12-26T03:00:27.512Z,1.45
2018-12-26T03:01:04.959Z,1.32
2018-12-26T03:01:41.917Z,1.57
2018-12-26T03:02:19.388Z,1.55
2018-12-26T03:02:56.644Z,1.72
2018-12-26T03:03:33.615Z,1.65
2018-12-26T03:04:11.348Z,1.62
2018-12-26T03:04:48.597Z,1.60
2018-12-26T03:05:26.321Z,1.37
2018-12-26T03:06:04.108Z,1.20
2018-12-26T03:06:41.452Z,1.55
2018-12-26T03:07:18.704Z,1.52
2018-12-26T03:07:55.917Z,1.57
2018-12-26T03:08:33.486Z,1.67
2018-12-26T03:09:10.836Z,1.30
2018-12-26T03:09:48.241Z,1.42
2018-12-26T03:10:26.069Z,1.40
2018-12-26T03:11:03.663Z,1.45
2018-12-26T03:11:40.644Z,1.35
2018-12-26T03:12:18.267Z,1.57
2018-12-26T03:12:55.860Z,1.60
2018-12-26T03:13:32.925Z,1.72
2018-12-26T03:14:10.553Z,1.40
2018-12-26T03:14:47.900Z,1.40
2018-12-26T03:15:25.175Z,1.45
2018-12-26T03:16:02.620Z,1.50
2018-12-26T03:16:40.513Z,1.50
2018-12-26T03:17:18.086Z,1.37
2018-12-26T03:17:56.050Z,1.70
2018-12-26T03:18:33.632Z,1.77
2018-12-26T03:19:11.190Z,1.72
2018-12-26T03:19:48.507Z,1.85
2018-12-26T03:20:25.794Z,1.25
2018-12-26T03:21:03.668Z,1.25
2018-12-26T03:21:41.492Z,2.67
2018-12-26T03:22:19.250Z,2.08
2018-12-26T03:22:57.128Z,1.42
2018-12-26T03:23:34.716Z,1.60
2018-12-26T03:24:12.273Z,1.45
2018-12-26T03:24:49.545Z,1.67
2018-12-26T03:25:27.181Z,1.47
2018-12-26T03:26:05.080Z,1.40
2018-12-26T03:26:42.392Z,1.35
2018-12-26T03:27:19.613Z,1.80
2018-12-26T03:27:56.816Z,1.30
2018-12-26T03:28:34.066Z,1.80
2018-12-26T03:29:11.797Z,1.40
2018-12-26T03:29:49.332Z,1.30
2018-12-26T03:30:27.140Z,1.80
2018-12-26T03:31:04.534Z,1.17
2018-12-26T03:31:41.610Z,1.30
2018-12-26T03:32:18.908Z,1.65
2018-12-26T03:32:56.549Z,1.50
2018-12-26T03:33:34.440Z,1.60
2018-12-26T03:34:12.010Z,1.40
2018-12-26T03:34:49.351Z,2.00
2018-12-26T03:35:26.599Z,1.60
2018-12-26T03:36:04.054Z,1.42
2018-12-26T03:36:41.998Z,1.37
2018-12-26T03:37:19.264Z,2.27
2018-12-26T03:37:57.188Z,1.77
2018-12-26T03:38:34.390Z,1.87
2018-12-26T03:39:11.894Z,1.57
2018-12-26T03:39:49.802Z,1.70
2018-12-26T03:40:28.164Z,1.75
2018-12-26T03:41:05.928Z,1.87
2018-12-26T03:41:43.775Z,2.30
2018-12-26T03:42:20.848Z,1.95
2018-12-26T03:42:58.296Z,1.47
2018-12-26T03:43:36.135Z,2.67
2018-12-26T03:44:14.044Z,2.02
2018-12-26T03:44:52.300Z,1.60
2018-12-26T03:45:30.604Z,2.20
2018-12-26T03:46:08.236Z,1.60
2018-12-26T03:46:46.216Z,2.27
2018-12-26T03:47:23.584Z,1.92
2018-12-26T03:48:01.427Z,1.52
2018-12-26T03:48:39.092Z,1.62
2018-12-26T03:49:16.429Z,1.30
2018-12-26T03:49:54.041Z,1.40
2018-12-26T03:50:31.385Z,1.70
2018-12-26T03:51:08.626Z,1.82
2018-12-26T03:51:45.925Z,1.90
2018-12-26T03:52:23.874Z,1.95
2018-12-26T03:53:01.205Z,2.05
2018-12-26T03:53:38.480Z,1.90
2018-12-26T03:54:16.036Z,1.60
2018-12-26T03:54:53.325Z,2.47
2018-12-26T03:55:31.175Z,2.05
2018-12-26T03:56:07.976Z,1.72
2018-12-26T03:56:45.404Z,1.52
2018-12-26T03:57:22.932Z,1.50
2018-12-26T03:58:00.856Z,2.30
2018-12-26T03:58:38.040Z,1.70
2018-12-26T03:59:15.658Z,2.08
2018-12-26T03:59:53.159Z,1.92
2018-12-26T04:00:30.869Z,1.85
2018-12-26T04:01:08.711Z,1.52
2018-12-26T04:01:46.052Z,1.87
2018-12-26T04:02:23.612Z,2.02
2018-12-26T04:03:00.651Z,2.42
2018-12-26T04:03:38.128Z,1.67
2018-12-26T04:04:15.132Z,1.82
2018-12-26T04:04:52.147Z,1.37
2018-12-26T04:05:30.136Z,1.77
2018-12-26T04:06:07.749Z,1.95
2018-12-26T04:06:45.068Z,1.62
2018-12-26T04:07:22.455Z,1.90
2018-12-26T04:07:59.525Z,1.60
2018-12-26T04:08:37.004Z,1.82
2018-12-26T04:09:14.963Z,1.85
2018-12-26T04:09:52.384Z,1.77
2018-12-26T04:10:29.718Z,1.98
2018-12-26T04:11:06.962Z,2.10
2018-12-26T04:11:44.037Z,1.90
2018-12-26T04:12:21.633Z,1.72
2018-12-26T04:12:59.417Z,2.00
2018-12-26T04:13:36.675Z,1.52
2018-12-26T04:14:14.002Z,1.52
2018-12-26T04:14:51.567Z,1.70
2018-12-26T04:15:29.020Z,1.47
2018-12-26T04:16:06.597Z,1.75
2018-12-26T04:16:44.050Z,1.70
2018-12-26T04:17:21.502Z,1.45
2018-12-26T04:17:58.993Z,2.00
2018-12-26T04:18:36.168Z,1.80
2018-12-26T04:19:13.773Z,1.87
2018-12-26T04:19:50.993Z,1.20
2018-12-26T04:20:28.639Z,1.52
2018-12-26T04:21:06.157Z,1.57
2018-12-26T04:21:43.581Z,1.85
2018-12-26T04:22:21.410Z,1.60
2018-12-26T04:22:59.657Z,1.85
2018-12-26T04:23:37.069Z,1.87
2018-12-26T04:24:14.075Z,1.95
2018-12-26T04:24:51.961Z,1.57
2018-12-26T04:25:29.775Z,1.65
2018-12-26T04:26:07.052Z,1.50
2018-12-26T04:26:44.615Z,1.57
2018-12-26T04:27:22.139Z,1.42
2018-12-26T04:27:59.695Z,1.50
2018-12-26T04:28:37.197Z,2.02
2018-12-26T04:29:14.697Z,1.40
2018-12-26T04:29:52.292Z,1.60
2018-12-26T04:30:29.806Z,2.50
2018-12-26T04:31:07.374Z,1.90
2018-12-26T04:31:44.593Z,1.85
2018-12-26T04:32:22.051Z,1.55
2018-12-26T04:32:59.588Z,1.52
2018-12-26T04:33:37.190Z,1.80
2018-12-26T04:34:14.763Z,1.72
2018-12-26T04:34:52.321Z,1.50
2018-12-26T04:35:30.110Z,1.70
2018-12-26T04:36:07.655Z,1.80
2018-12-26T04:36:44.955Z,1.50
2018-12-26T04:37:22.463Z,1.50
2018-12-26T04:37:59.729Z,1.52
2018-12-26T04:38:37.031Z,1.32
2018-12-26T04:39:14.305Z,1.30
2018-12-26T04:39:51.765Z,0.98
2018-12-26T04:40:29.021Z,1.92
2018-12-26T04:41:06.301Z,1.80
2018-12-26T04:41:44.042Z,1.30
2018-12-26T04:42:21.597Z,2.22
2018-12-26T04:42:59.089Z,1.20
2018-12-26T04:43:36.895Z,1.22
2018-12-26T04:44:14.515Z,1.35
2018-12-26T04:44:51.790Z,1.10
2018-12-26T04:45:29.627Z,1.62
2018-12-26T04:46:06.883Z,1.32
2018-12-26T04:46:43.864Z,1.52
2018-12-26T04:47:21.127Z,1.52
2018-12-26T04:47:58.636Z,1.37
2018-12-26T04:48:36.476Z,1.30
2018-12-26T04:49:13.987Z,1.50
2018-12-26T04:49:51.475Z,1.07
2018-12-26T04:50:28.822Z,1.15
2018-12-26T04:51:06.125Z,1.35
2018-12-26T04:51:43.404Z,1.22
2018-12-26T04:52:20.403Z,1.17
2018-12-26T04:52:57.677Z,1.00
2018-12-26T04:53:35.467Z,1.35
2018-12-26T04:54:13.311Z,1.02
2018-12-26T04:54:50.885Z,1.35
2018-12-26T04:55:28.133Z,1.20
2018-12-26T04:56:05.419Z,1.27
2018-12-26T04:56:42.993Z,1.22
2018-12-26T04:57:24.800Z,1.20
2018-12-26T04:58:00.146Z,1.40
2018-12-26T04:58:37.823Z,1.27
2018-12-26T04:59:15.393Z,1.35
2018-12-26T04:59:52.945Z,1.00
2018-12-26T05:00:30.450Z,1.17
2018-12-26T05:01:08.440Z,1.40
2018-12-26T05:01:45.613Z,1.22
2018-12-26T05:02:23.478Z,1.62
2018-12-26T05:03:01.359Z,1.25
2018-12-26T05:03:38.803Z,1.30
2018-12-26T05:04:16.437Z,1.22
2018-12-26T05:04:54.363Z,1.12
2018-12-26T05:05:32.040Z,1.50
2018-12-26T05:06:09.680Z,1.42
2018-12-26T05:06:47.561Z,1.20
2018-12-26T05:07:25.143Z,1.45
2018-12-26T05:08:02.841Z,1.15
2018-12-26T05:08:39.852Z,1.00
2018-12-26T05:09:17.729Z,1.30
2018-12-26T05:09:55.705Z,1.00
2018-12-26T05:10:33.283Z,1.00
2018-12-26T05:11:10.608Z,1.60
2018-12-26T05:11:48.257Z,1.67
2018-12-26T05:12:25.329Z,1.27
2018-12-26T05:13:03.240Z,1.42
2018-12-26T05:13:40.639Z,1.55
2018-12-26T05:14:18.607Z,1.40
2018-12-26T05:14:56.590Z,1.40
2018-12-26T05:15:34.125Z,1.10
2018-12-26T05:16:11.807Z,1.22
2018-12-26T05:16:49.165Z,1.45
2018-12-26T05:17:26.499Z,1.10
2018-12-26T05:18:04.353Z,1.40
2018-12-26T05:18:41.563Z,1.20
2018-12-26T05:19:19.387Z,1.27
2018-12-26T05:19:57.129Z,1.07
2018-12-26T05:20:34.549Z,1.35
2018-12-26T05:21:12.438Z,1.65
2018-12-26T05:21:50.155Z,1.37
2018-12-26T05:22:27.514Z,1.30
2018-12-26T05:23:04.847Z,1.00
2018-12-26T05:23:42.709Z,1.40
2018-12-26T05:24:20.380Z,1.20
2018-12-26T05:24:58.351Z,1.35
2018-12-26T05:25:35.677Z,1.30
2018-12-26T05:26:13.140Z,1.60
2018-12-26T05:26:50.635Z,1.05
2018-12-26T05:27:34.176Z,1.20
2018-12-26T05:28:07.597Z,1.22
2018-12-26T05:28:45.131Z,1.60
2018-12-26T05:29:22.987Z,1.42
2018-12-26T05:30:00.582Z,1.77
2018-12-26T05:30:38.157Z,1.35
2018-12-26T05:31:15.683Z,1.25
2018-12-26T05:31:52.949Z,1.35
2018-12-26T05:32:30.721Z,1.42
2018-12-26T05:33:08.326Z,1.15
2018-12-26T05:33:45.617Z,1.95
2018-12-26T05:34:22.827Z,1.30
2018-12-26T05:35:00.355Z,1.30
2018-12-26T05:35:37.657Z,1.50
2018-12-26T05:36:15.202Z,1.65
2018-12-26T05:36:52.845Z,1.50
2018-12-26T05:37:30.639Z,1.55
2018-12-26T05:38:07.874Z,1.60
2018-12-26T05:38:45.445Z,1.65
2018-12-26T05:39:22.772Z,1.60
2018-12-26T05:40:00.432Z,1.80
2018-12-26T05:40:37.473Z,1.98
2018-12-26T05:41:14.733Z,2.15
2018-12-26T05:41:52.329Z,1.75
2018-12-26T05:42:29.534Z,1.47
2018-12-26T05:43:06.250Z,1.65
2018-12-26T05:43:44.189Z,1.57
2018-12-26T05:44:22.062Z,1.62
2018-12-26T05:44:59.649Z,2.33
2018-12-26T05:45:37.501Z,2.40
2018-12-26T05:46:15.339Z,2.00
2018-12-26T05:46:52.603Z,1.90
2018-12-26T05:47:30.131Z,2.12
2018-12-26T05:48:07.934Z,1.52
2018-12-26T05:48:45.161Z,2.00
2018-12-26T05:49:22.463Z,1.50
2018-12-26T05:50:00.305Z,1.98
2018-12-26T05:50:38.236Z,1.77
2018-12-26T05:51:15.793Z,2.25
2018-12-26T05:51:53.354Z,1.77
2018-12-26T05:52:30.344Z,1.65
2018-12-26T05:53:08.135Z,1.70
2018-12-26T05:53:45.681Z,1.60
2018-12-26T05:54:23.348Z,1.90
2018-12-26T05:55:00.647Z,2.08
2018-12-26T05:55:37.955Z,2.10
2018-12-26T05:56:15.258Z,1.92
2018-12-26T05:56:52.309Z,2.50
2018-12-26T05:57:29.866Z,2.47
2018-12-26T05:58:07.391Z,1.70
2018-12-26T05:58:44.621Z,2.62
2018-12-26T05:59:22.205Z,2.47
2018-12-26T06:00:00.079Z,2.67
2018-12-26T06:00:37.901Z,2.20
2018-12-26T06:01:15.478Z,2.08
2018-12-26T06:01:53.013Z,1.80
2018-12-26T06:02:30.559Z,2.15
2018-12-26T06:03:08.162Z,1.87
2018-12-26T06:03:45.799Z,1.70
2018-12-26T06:04:23.303Z,1.40
2018-12-26T06:05:00.353Z,1.60
2018-12-26T06:05:37.646Z,1.65
2018-12-26T06:06:15.201Z,1.67
2018-12-26T06:06:52.801Z,1.37
2018-12-26T06:07:30.053Z,2.17
2018-12-26T06:08:08.363Z,2.20
2018-12-26T06:08:45.664Z,1.70
2018-12-26T06:09:23.239Z,2.10
2018-12-26T06:10:00.745Z,1.30
2018-12-26T06:10:38.307Z,1.40
2018-12-26T06:11:15.645Z,1.40
2018-12-26T06:11:53.615Z,2.58
2018-12-26T06:12:31.185Z,1.77
2018-12-26T06:13:08.196Z,1.75
2018-12-26T06:13:45.485Z,1.65
2018-12-26T06:14:23.074Z,1.60
2018-12-26T06:15:00.688Z,1.60
2018-12-26T06:15:38.298Z,2.05
2018-12-26T06:16:15.571Z,1.87
2018-12-26T06:16:53.084Z,1.55
2018-12-26T06:17:30.657Z,1.60
2018-12-26T06:18:08.358Z,1.67
2018-12-26T06:18:45.984Z,1.60
2018-12-26T06:19:23.584Z,1.42
2018-12-26T06:20:00.864Z,1.85
2018-12-26T06:20:38.621Z,1.60
2018-12-26T06:21:15.635Z,2.00
2018-12-26T06:21:52.963Z,1.75
2018-12-26T06:22:30.291Z,1.80
2018-12-26T06:23:07.430Z,1.85
2018-12-26T06:23:44.810Z,1.82
2018-12-26T06:24:22.316Z,1.72
2018-12-26T06:25:00.292Z,2.08
2018-12-26T06:25:37.576Z,2.00
2018-12-26T06:26:15.161Z,1.55
2018-12-26T06:26:52.466Z,2.00
2018-12-26T06:27:30.034Z,1.62
2018-12-26T06:28:07.341Z,1.40
2018-12-26T06:28:45.279Z,1.65
2018-12-26T06:29:22.856Z,1.90
2018-12-26T06:30:00.448Z,1.80
2018-12-26T06:30:38.095Z,2.20
2018-12-26T06:31:15.888Z,1.37
2018-12-26T06:31:53.758Z,1.40
2018-12-26T06:32:31.306Z,2.25
2018-12-26T06:33:08.340Z,1.60
2018-12-26T06:33:46.183Z,2.02
2018-12-26T06:34:24.037Z,1.60
2018-12-26T06:35:01.608Z,1.57
2018-12-26T06:35:38.925Z,2.00
2018-12-26T06:36:16.577Z,1.57
2018-12-26T06:36:53.605Z,1.87
2018-12-26T06:37:30.815Z,1.55
2018-12-26T06:38:07.763Z,1.50
2018-12-26T06:38:45.052Z,1.10
2018-12-26T06:39:22.345Z,1.50
2018-12-26T06:39:59.921Z,1.15
2018-12-26T06:40:37.776Z,1.55
2018-12-26T06:41:15.319Z,2.42
2018-12-26T06:41:53.157Z,2.42
2018-12-26T06:42:30.458Z,1.50
2018-12-26T06:43:08.021Z,1.70
2018-12-26T06:43:44.967Z,1.27
2018-12-26T06:44:21.953Z,1.25
2018-12-26T06:44:59.465Z,1.22
2018-12-26T06:45:37.033Z,1.47
2018-12-26T06:46:14.523Z,1.05
2018-12-26T06:46:52.465Z,1.60
2018-12-26T06:47:30.299Z,1.50
2018-12-26T06:48:07.586Z,1.27
2018-12-26T06:48:45.178Z,1.37
2018-12-26T06:49:22.134Z,1.50
2018-12-26T06:49:59.123Z,2.30
2018-12-26T06:50:36.683Z,1.80
2018-12-26T06:51:14.269Z,1.62
2018-12-26T06:51:51.830Z,1.57
2018-12-26T06:52:29.092Z,1.75
2018-12-26T06:53:06.585Z,1.37
2018-12-26T06:53:44.172Z,1.30
2018-12-26T06:54:21.997Z,1.72
2018-12-26T06:54:59.302Z,1.70
2018-12-26T06:55:36.983Z,1.15
2018-12-26T06:56:14.623Z,1.70
2018-12-26T06:56:52.235Z,1.70
2018-12-26T06:57:29.799Z,1.75
2018-12-26T06:58:07.366Z,1.75
2018-12-26T06:58:44.381Z,1.60
2018-12-26T06:59:22.225Z,2.37
2018-12-26T07:00:00.085Z,2.02
2018-12-26T07:00:37.541Z,2.12
2018-12-26T07:01:15.157Z,1.60
2018-12-26T07:01:52.425Z,1.40
2018-12-26T07:02:29.989Z,1.60
2018-12-26T07:03:07.839Z,1.67
2018-12-26T07:03:45.634Z,1.40
2018-12-26T07:04:23.189Z,2.05
2018-12-26T07:05:00.853Z,1.70
2018-12-26T07:05:38.294Z,2.58
2018-12-26T07:06:15.609Z,2.00
2018-12-26T07:06:53.133Z,1.82
2018-12-26T07:07:30.687Z,2.45
2018-12-26T07:08:08.013Z,1.50
2018-12-26T07:08:45.273Z,1.55
2018-12-26T07:09:22.221Z,1.30
2018-12-26T07:10:00.009Z,1.70
2018-12-26T07:10:37.296Z,2.47
2018-12-26T07:11:14.590Z,2.52
2018-12-26T07:11:52.446Z,1.62
2018-12-26T07:12:29.723Z,1.20
2018-12-26T07:13:07.354Z,2.08
2018-12-26T07:13:45.224Z,1.50
2018-12-26T07:14:23.119Z,1.62
2018-12-26T07:15:00.738Z,2.02
2018-12-26T07:15:38.334Z,1.55
2018-12-26T07:16:15.925Z,2.35
2018-12-26T07:16:53.892Z,1.90
2018-12-26T07:17:30.934Z,1.80
2018-12-26T07:18:08.512Z,1.80
2018-12-26T07:18:45.820Z,1.70
2018-12-26T07:19:23.462Z,1.55
2018-12-26T07:20:00.472Z,2.92
2018-12-26T07:20:37.966Z,1.90
2018-12-26T07:21:15.806Z,1.60
2018-12-26T07:21:53.132Z,1.95
2018-12-26T07:22:30.456Z,2.35
2018-12-26T07:23:08.062Z,1.70
2018-12-26T07:23:45.386Z,2.08
2018-12-26T07:24:22.980Z,2.08
2018-12-26T07:25:00.816Z,2.22
2018-12-26T07:25:38.473Z,2.25
2018-12-26T07:26:16.086Z,1.98
2018-12-26T07:26:53.396Z,1.80
2018-12-26T07:27:30.938Z,2.08
2018-12-26T07:28:09.344Z,2.42
2018-12-26T07:28:47.116Z,1.60
2018-12-26T07:29:24.447Z,1.95
2018-12-26T07:30:02.000Z,2.95
2018-12-26T07:30:39.546Z,2.15
2018-12-26T07:31:16.743Z,2.10
2018-12-26T07:31:53.780Z,2.35
2018-12-26T07:32:31.062Z,1.80
2018-12-26T07:33:08.409Z,2.45
2018-12-26T07:33:45.460Z,2.15
2018-12-26T07:34:22.582Z,2.62
2018-12-26T07:35:00.358Z,2.15
2018-12-26T07:35:38.164Z,2.02
2018-12-26T07:36:15.731Z,2.60
2018-12-26T07:36:53.311Z,2.12
2018-12-26T07:37:30.502Z,2.55
2018-12-26T07:38:08.330Z,2.40
2018-12-26T07:38:45.918Z,1.95
2018-12-26T07:39:23.572Z,2.40
2018-12-26T07:40:00.605Z,2.00
2018-12-26T07:40:38.223Z,2.05
2018-12-26T07:41:15.741Z,2.05
2018-12-26T07:41:53.038Z,2.85
2018-12-26T07:42:30.986Z,2.83
2018-12-26T07:43:08.291Z,2.70
2018-12-26T07:43:46.083Z,2.00
2018-12-26T07:44:23.332Z,2.33
2018-12-26T07:45:00.864Z,2.20
2018-12-26T07:45:38.808Z,3.05
2018-12-26T07:46:15.524Z,1.95
2018-12-26T07:46:53.123Z,2.20
2018-12-26T07:47:30.710Z,1.55
2018-12-26T07:48:08.612Z,1.92
2018-12-26T07:48:46.086Z,1.82
2018-12-26T07:49:23.396Z,2.27
2018-12-26T07:50:01.224Z,2.52
2018-12-26T07:50:38.556Z,1.70
2018-12-26T07:51:16.362Z,2.05
2018-12-26T07:51:54.157Z,1.82
2018-12-26T07:52:31.121Z,1.90
2018-12-26T07:53:08.962Z,2.20
2018-12-26T07:53:46.588Z,1.92
2018-12-26T07:54:24.328Z,1.65
2018-12-26T07:55:01.813Z,2.70
2018-12-26T07:55:39.415Z,1.92
2018-12-26T07:56:17.216Z,2.15
2018-12-26T07:56:54.967Z,2.58
2018-12-26T07:57:32.500Z,1.98
2018-12-26T07:58:17.513Z,1.80
2018-12-26T07:58:49.744Z,2.12
2018-12-26T07:59:27.282Z,2.17
2018-12-26T08:00:05.052Z,1.77
2018-12-26T08:00:42.329Z,2.67
2018-12-26T08:01:19.408Z,2.52
2018-12-26T08:01:56.312Z,2.80
2018-12-26T08:02:33.839Z,2.27
2018-12-26T08:03:11.320Z,2.30
2018-12-26T08:03:48.634Z,2.42
2018-12-26T08:04:26.176Z,2.10
2018-12-26T08:05:03.460Z,3.00
2018-12-26T08:05:40.962Z,2.30
2018-12-26T08:06:18.216Z,3.02
2018-12-26T08:06:55.759Z,1.98
2018-12-26T08:07:33.113Z,2.42
2018-12-26T08:08:10.136Z,2.33
2018-12-26T08:08:47.640Z,2.10
2018-12-26T08:09:25.038Z,1.98
2018-12-26T08:10:02.308Z,2.10
2018-12-26T08:10:39.669Z,2.15
2018-12-26T08:11:17.021Z,2.25
2018-12-26T08:11:54.462Z,2.50
2018-12-26T08:12:31.726Z,2.10
2018-12-26T08:13:08.785Z,2.52
2018-12-26T08:13:46.011Z,2.30
2018-12-26T08:14:23.296Z,2.35
2018-12-26T08:15:00.512Z,1.80
2018-12-26T08:15:37.837Z,2.67
2018-12-26T08:16:15.381Z,2.35
2018-12-26T08:16:53.419Z,2.45
2018-12-26T08:17:30.689Z,1.92
2018-12-26T08:18:07.944Z,2.20
2018-12-26T08:18:45.515Z,1.92
2018-12-26T08:19:23.413Z,2.52